createdAt,value
2018-08-21T00:00:22.025Z,1014.55
2018-08-21T00:00:48.157Z,1014.57
2018-08-21T00:01:14.324Z,1014.58
2018-08-21T00:01:40.462Z,1014.59
2018-08-21T00:02:06.599Z,1014.6
2018-08-21T00:02:32.735Z,1014.61
2018-08-21T00:02:58.876Z,1014.63
2018-08-21T00:03:25.012Z,1014.62
2018-08-21T00:03:51.173Z,1014.6
2018-08-21T00:04:17.351Z,1014.61
2018-08-21T00:04:43.545Z,1014.59
2018-08-21T00:05:09.819Z,1014.59
2018-08-21T00:05:35.952Z,1014.6
2018-08-21T00:06:02.117Z,1014.59
2018-08-21T00:06:28.248Z,1014.58
2018-08-21T00:06:54.415Z,1014.58
2018-08-21T00:07:20.549Z,1014.54
2018-08-21T00:07:46.685Z,1014.56
2018-08-21T00:08:12.821Z,1014.5
2018-08-21T00:08:38.958Z,1014.54
2018-08-21T00:09:05.107Z,1014.54
2018-08-21T00:09:31.272Z,1014.54
2018-08-21T00:09:57.403Z,1014.53
2018-08-21T00:10:23.564Z,1014.57
2018-08-21T00:10:49.726Z,1014.56
2018-08-21T00:11:15.872Z,1014.57
2018-08-21T00:11:42.003Z,1014.59
2018-08-21T00:12:08.139Z,1014.58
2018-08-21T00:12:34.275Z,1014.57
2018-08-21T00:13:00.437Z,1014.58
2018-08-21T00:13:26.570Z,1014.61
2018-08-21T00:13:52.736Z,1014.61
2018-08-21T00:14:18.893Z,1014.59
2018-08-21T00:14:45.044Z,1014.61
2018-08-21T00:15:11.181Z,1014.57
2018-08-21T00:15:37.321Z,1014.57
2018-08-21T00:16:03.461Z,1014.58
2018-08-21T00:16:29.600Z,1014.58
2018-08-21T00:16:55.738Z,1014.56
2018-08-21T00:17:21.882Z,1014.6
2018-08-21T00:17:48.017Z,1014.58
2018-08-21T00:18:14.156Z,1014.6
2018-08-21T00:18:40.316Z,1014.57
2018-08-21T00:19:06.451Z,1014.56
2018-08-21T00:19:32.589Z,1014.58
2018-08-21T00:19:58.729Z,1014.58
2018-08-21T00:20:24.867Z,1014.59
2018-08-21T00:20:51.000Z,1014.59
2018-08-21T00:21:17.157Z,1014.57
2018-08-21T00:21:43.292Z,1014.55
2018-08-21T00:22:09.460Z,1014.55
2018-08-21T00:22:35.599Z,1014.61
2018-08-21T00:23:01.787Z,1014.58
2018-08-21T00:23:27.918Z,1014.57
2018-08-21T00:23:54.081Z,1014.59
2018-08-21T00:24:20.219Z,1014.56
2018-08-21T00:24:46.354Z,1014.56
2018-08-21T00:25:12.488Z,1014.59
2018-08-21T00:25:38.625Z,1014.64
2018-08-21T00:26:04.766Z,1014.58
2018-08-21T00:26:30.920Z,1014.56
2018-08-21T00:26:57.062Z,1014.59
2018-08-21T00:27:23.194Z,1014.58
2018-08-21T00:27:49.332Z,1014.6
2018-08-21T00:28:15.488Z,1014.62
2018-08-21T00:28:41.631Z,1014.61
2018-08-21T00:29:07.765Z,1014.62
2018-08-21T00:29:33.900Z,1014.61
2018-08-21T00:30:00.057Z,1014.62
2018-08-21T00:30:26.182Z,1014.62
2018-08-21T00:30:52.318Z,1014.62
2018-08-21T00:31:18.462Z,1014.6
2018-08-21T00:31:44.650Z,1014.62
2018-08-21T00:32:10.777Z,1014.61
2018-08-21T00:32:36.941Z,1014.6
2018-08-21T00:33:03.097Z,1014.57
2018-08-21T00:33:29.232Z,1014.59
2018-08-21T00:33:55.365Z,1014.57
2018-08-21T00:34:21.528Z,1014.58
2018-08-21T00:34:47.681Z,1014.57
2018-08-21T00:35:13.823Z,1014.59
2018-08-21T00:35:39.952Z,1014.56
2018-08-21T00:36:06.092Z,1014.55
2018-08-21T00:36:32.221Z,1014.59
2018-08-21T00:36:58.361Z,1014.56
2018-08-21T00:37:24.493Z,1014.56
2018-08-21T00:37:50.633Z,1014.55
2018-08-21T00:38:16.789Z,1014.59
2018-08-21T00:38:42.931Z,1014.59
2018-08-21T00:39:09.062Z,1014.53
2018-08-21T00:39:35.204Z,1014.6
2018-08-21T00:40:01.336Z,1014.59
2018-08-21T00:40:27.499Z,1014.57
2018-08-21T00:40:53.637Z,1014.59
2018-08-21T00:41:19.780Z,1014.58
2018-08-21T00:41:45.919Z,1014.58
2018-08-21T00:42:12.097Z,1014.58
2018-08-21T00:42:38.232Z,1014.57
2018-08-21T00:43:04.366Z,1014.58
2018-08-21T00:43:30.504Z,1014.56
2018-08-21T00:43:56.641Z,1014.58
2018-08-21T00:44:22.776Z,1014.59
2018-08-21T00:44:48.912Z,1014.58
2018-08-21T00:45:15.071Z,1014.57
2018-08-21T00:45:41.205Z,1014.58
2018-08-21T00:46:07.367Z,1014.58
2018-08-21T00:46:33.508Z,1014.59
2018-08-21T00:46:59.635Z,1014.58
2018-08-21T00:47:25.769Z,1014.58
2018-08-21T00:47:51.904Z,1014.56
2018-08-21T00:48:18.042Z,1014.57
2018-08-21T00:48:44.170Z,1014.6
2018-08-21T00:49:10.314Z,1014.56
2018-08-21T00:49:36.448Z,1014.58
2018-08-21T00:50:02.584Z,1014.62
2018-08-21T00:50:28.724Z,1014.61
2018-08-21T00:50:54.858Z,1014.63
2018-08-21T00:51:21.001Z,1014.59
2018-08-21T00:51:47.135Z,1014.57
2018-08-21T00:52:13.267Z,1014.56
2018-08-21T00:52:39.408Z,1014.59
2018-08-21T00:53:05.591Z,1014.58
2018-08-21T00:53:31.746Z,1014.57
2018-08-21T00:53:57.879Z,1014.59
2018-08-21T00:54:24.025Z,1014.58
2018-08-21T00:54:50.161Z,1014.59
2018-08-21T00:55:16.318Z,1014.59
2018-08-21T00:55:42.455Z,1014.58
2018-08-21T00:56:08.589Z,1014.59
2018-08-21T00:56:34.753Z,1014.59
2018-08-21T00:57:00.917Z,1014.59
2018-08-21T00:57:27.042Z,1014.59
2018-08-21T00:57:53.182Z,1014.6
2018-08-21T00:58:19.320Z,1014.55
2018-08-21T00:58:45.484Z,1014.61
2018-08-21T00:59:11.628Z,1014.59
2018-08-21T00:59:37.760Z,1014.57
2018-08-21T01:00:03.890Z,1014.59
2018-08-21T01:00:30.048Z,1014.6
2018-08-21T01:00:56.187Z,1014.59
2018-08-21T01:01:22.342Z,1014.61
2018-08-21T01:01:48.479Z,1014.62
2018-08-21T01:02:14.615Z,1014.62
2018-08-21T01:02:40.771Z,1014.63
2018-08-21T01:03:06.917Z,1014.62
2018-08-21T01:03:33.077Z,1014.59
2018-08-21T01:03:59.214Z,1014.62
2018-08-21T01:04:25.376Z,1014.66
2018-08-21T01:04:51.509Z,1014.64
2018-08-21T01:05:17.649Z,1014.64
2018-08-21T01:05:43.785Z,1014.61
2018-08-21T01:06:09.920Z,1014.65
2018-08-21T01:06:36.063Z,1014.68
2018-08-21T01:07:02.215Z,1014.67
2018-08-21T01:07:28.345Z,1014.64
2018-08-21T01:07:54.481Z,1014.67
2018-08-21T01:08:20.616Z,1014.65
2018-08-21T01:08:46.752Z,1014.67
2018-08-21T01:09:12.888Z,1014.68
2018-08-21T01:09:39.040Z,1014.68
2018-08-21T01:10:05.177Z,1014.67
2018-08-21T01:10:31.312Z,1014.68
2018-08-21T01:10:57.472Z,1014.69
2018-08-21T01:11:23.609Z,1014.66
2018-08-21T01:11:49.768Z,1014.67
2018-08-21T01:12:15.910Z,1014.65
2018-08-21T01:12:42.075Z,1014.64
2018-08-21T01:13:08.213Z,1014.68
2018-08-21T01:13:34.348Z,1014.65
2018-08-21T01:14:00.509Z,1014.63
2018-08-21T01:14:26.644Z,1014.67
2018-08-21T01:14:52.774Z,1014.7
2018-08-21T01:15:18.915Z,1014.66
2018-08-21T01:15:45.050Z,1014.63
2018-08-21T01:16:11.192Z,1014.65
2018-08-21T01:16:37.349Z,1014.62
2018-08-21T01:17:03.490Z,1014.66
2018-08-21T01:17:29.622Z,1014.67
2018-08-21T01:17:55.786Z,1014.64
2018-08-21T01:18:21.915Z,1014.66
2018-08-21T01:18:48.050Z,1014.67
2018-08-21T01:19:14.211Z,1014.7
2018-08-21T01:19:40.345Z,1014.66
2018-08-21T01:20:06.485Z,1014.66
2018-08-21T01:20:32.621Z,1014.66
2018-08-21T01:20:58.756Z,1014.68
2018-08-21T01:21:24.909Z,1014.68
2018-08-21T01:21:51.042Z,1014.68
2018-08-21T01:22:17.180Z,1014.72
2018-08-21T01:22:43.317Z,1014.7
2018-08-21T01:23:09.452Z,1014.68
2018-08-21T01:23:35.589Z,1014.72
2018-08-21T01:24:01.721Z,1014.68
2018-08-21T01:24:27.879Z,1014.7
2018-08-21T01:24:54.014Z,1014.67
2018-08-21T01:25:20.155Z,1014.69
2018-08-21T01:25:46.290Z,1014.71
2018-08-21T01:26:12.431Z,1014.64
2018-08-21T01:26:38.567Z,1014.72
2018-08-21T01:27:04.706Z,1014.68
2018-08-21T01:27:30.886Z,1014.7
2018-08-21T01:27:57.023Z,1014.66
2018-08-21T01:28:23.157Z,1014.68
2018-08-21T01:28:49.295Z,1014.67
2018-08-21T01:29:15.432Z,1014.68
2018-08-21T01:29:41.568Z,1014.69
2018-08-21T01:30:07.700Z,1014.69
2018-08-21T01:30:33.855Z,1014.73
2018-08-21T01:30:59.994Z,1014.7
2018-08-21T01:31:26.138Z,1014.67
2018-08-21T01:31:52.327Z,1014.68
2018-08-21T01:32:18.488Z,1014.7
2018-08-21T01:32:44.620Z,1014.69
2018-08-21T01:33:10.754Z,1014.7
2018-08-21T01:33:36.912Z,1014.68
2018-08-21T01:34:03.050Z,1014.69
2018-08-21T01:34:29.181Z,1014.71
2018-08-21T01:34:55.318Z,1014.71
2018-08-21T01:35:21.458Z,1014.72
2018-08-21T01:35:47.579Z,1014.72
2018-08-21T01:36:13.744Z,1014.74
2018-08-21T01:36:39.904Z,1014.72
2018-08-21T01:37:06.036Z,1014.68
2018-08-21T01:37:32.171Z,1014.76
2018-08-21T01:37:58.331Z,1014.7
2018-08-21T01:38:24.468Z,1014.71
2018-08-21T01:38:50.627Z,1014.73
2018-08-21T01:39:16.805Z,1014.72
2018-08-21T01:39:42.944Z,1014.69
2018-08-21T01:40:09.083Z,1014.7
2018-08-21T01:40:35.220Z,1014.73
2018-08-21T01:41:01.348Z,1014.69
2018-08-21T01:41:27.486Z,1014.72
2018-08-21T01:41:53.621Z,1014.69
2018-08-21T01:42:19.757Z,1014.68
2018-08-21T01:42:45.897Z,1014.71
2018-08-21T01:43:12.031Z,1014.68
2018-08-21T01:43:38.158Z,1014.71
2018-08-21T01:44:04.333Z,1014.71
2018-08-21T01:44:30.486Z,1014.7
2018-08-21T01:44:56.620Z,1014.73
2018-08-21T01:45:22.762Z,1014.74
2018-08-21T01:45:48.898Z,1014.68
2018-08-21T01:46:15.038Z,1014.74
2018-08-21T01:46:41.172Z,1014.74
2018-08-21T01:47:07.308Z,1014.72
2018-08-21T01:47:33.492Z,1014.73
2018-08-21T01:47:59.631Z,1014.69
2018-08-21T01:48:25.766Z,1014.7
2018-08-21T01:48:51.904Z,1014.76
2018-08-21T01:49:18.057Z,1014.74
2018-08-21T01:49:44.191Z,1014.73
2018-08-21T01:50:10.355Z,1014.71
2018-08-21T01:50:36.493Z,1014.73
2018-08-21T01:51:02.629Z,1014.7
2018-08-21T01:51:28.759Z,1014.74
2018-08-21T01:51:54.897Z,1014.71
2018-08-21T01:52:21.036Z,1014.71
2018-08-21T01:52:47.172Z,1014.74
2018-08-21T01:53:13.305Z,1014.73
2018-08-21T01:53:39.448Z,1014.73
2018-08-21T01:54:05.589Z,1014.72
2018-08-21T01:54:31.775Z,1014.74
2018-08-21T01:54:57.941Z,1014.73
2018-08-21T01:55:24.078Z,1014.71
2018-08-21T01:55:50.227Z,1014.7
2018-08-21T01:56:16.372Z,1014.71
2018-08-21T01:56:42.502Z,1014.75
2018-08-21T01:57:08.643Z,1014.7
2018-08-21T01:57:34.809Z,1014.69
2018-08-21T01:58:00.934Z,1014.72
2018-08-21T01:58:27.075Z,1014.7
2018-08-21T01:58:53.211Z,1014.71
2018-08-21T01:59:19.342Z,1014.72
2018-08-21T01:59:45.474Z,1014.73
2018-08-21T02:00:11.613Z,1014.72
2018-08-21T02:00:37.750Z,1014.71
2018-08-21T02:01:03.885Z,1014.72
2018-08-21T02:01:30.020Z,1014.72
2018-08-21T02:01:56.159Z,1014.74
2018-08-21T02:02:22.296Z,1014.76
2018-08-21T02:02:48.438Z,1014.72
2018-08-21T02:03:14.566Z,1014.72
2018-08-21T02:03:40.702Z,1014.74
2018-08-21T02:04:06.843Z,1014.75
2018-08-21T02:04:32.970Z,1014.74
2018-08-21T02:04:59.118Z,1014.7
2018-08-21T02:05:25.257Z,1014.73
2018-08-21T02:05:51.416Z,1014.73
2018-08-21T02:06:17.548Z,1014.77
2018-08-21T02:06:43.687Z,1014.74
2018-08-21T02:07:09.822Z,1014.75
2018-08-21T02:07:35.963Z,1014.73
2018-08-21T02:08:02.120Z,1014.74
2018-08-21T02:08:28.262Z,1014.72
2018-08-21T02:08:54.405Z,1014.73
2018-08-21T02:09:20.593Z,1014.69
2018-08-21T02:09:46.726Z,1014.73
2018-08-21T02:10:12.892Z,1014.7
2018-08-21T02:10:39.033Z,1014.7
2018-08-21T02:11:05.219Z,1014.69
2018-08-21T02:11:31.382Z,1014.7
2018-08-21T02:11:57.536Z,1014.68
2018-08-21T02:12:23.678Z,1014.67
2018-08-21T02:12:49.817Z,1014.66
2018-08-21T02:13:15.951Z,1014.67
2018-08-21T02:13:42.084Z,1014.65
2018-08-21T02:14:08.240Z,1014.68
2018-08-21T02:14:34.405Z,1014.66
2018-08-21T02:15:00.541Z,1014.67
2018-08-21T02:15:26.685Z,1014.66
2018-08-21T02:15:52.818Z,1014.66
2018-08-21T02:16:18.954Z,1014.64
2018-08-21T02:16:45.089Z,1014.66
2018-08-21T02:17:11.234Z,1014.66
2018-08-21T02:17:37.370Z,1014.68
2018-08-21T02:18:03.514Z,1014.67
2018-08-21T02:18:29.658Z,1014.67
2018-08-21T02:18:55.791Z,1014.64
2018-08-21T02:19:21.948Z,1014.59
2018-08-21T02:19:48.091Z,1014.66
2018-08-21T02:20:14.244Z,1014.66
2018-08-21T02:20:40.387Z,1014.62
2018-08-21T02:21:06.526Z,1014.64
2018-08-21T02:21:32.664Z,1014.63
2018-08-21T02:21:58.796Z,1014.66
2018-08-21T02:22:24.928Z,1014.63
2018-08-21T02:22:51.063Z,1014.6
2018-08-21T02:23:17.202Z,1014.63
2018-08-21T02:23:43.345Z,1014.65
2018-08-21T02:24:09.499Z,1014.62
2018-08-21T02:24:35.630Z,1014.62
2018-08-21T02:25:01.775Z,1014.65
2018-08-21T02:25:27.928Z,1014.65
2018-08-21T02:25:54.096Z,1014.63
2018-08-21T02:26:20.225Z,1014.63
2018-08-21T02:26:46.385Z,1014.63
2018-08-21T02:27:12.525Z,1014.67
2018-08-21T02:27:38.651Z,1014.62
2018-08-21T02:28:04.783Z,1014.64
2018-08-21T02:28:30.922Z,1014.64
2018-08-21T02:28:57.073Z,1014.64
2018-08-21T02:29:23.235Z,1014.63
2018-08-21T02:29:49.385Z,1014.62
2018-08-21T02:30:15.570Z,1014.62
2018-08-21T02:30:41.730Z,1014.62
2018-08-21T02:31:07.871Z,1014.64
2018-08-21T02:31:34.045Z,1014.65
2018-08-21T02:32:00.308Z,1014.61
2018-08-21T02:32:26.337Z,1014.65
2018-08-21T02:32:52.473Z,1014.66
2018-08-21T02:33:18.606Z,1014.66
2018-08-21T02:33:44.752Z,1014.65
2018-08-21T02:34:10.956Z,1014.65
2018-08-21T02:34:37.140Z,1014.65
2018-08-21T02:35:03.305Z,1014.63
2018-08-21T02:35:29.440Z,1014.64
2018-08-21T02:35:55.605Z,1014.63
2018-08-21T02:36:21.768Z,1014.65
2018-08-21T02:36:47.926Z,1014.65
2018-08-21T02:37:14.109Z,1014.67
2018-08-21T02:37:40.246Z,1014.65
2018-08-21T02:38:06.405Z,1014.68
2018-08-21T02:38:32.537Z,1014.69
2018-08-21T02:38:58.681Z,1014.64
2018-08-21T02:39:24.877Z,1014.62
2018-08-21T02:39:51.009Z,1014.62
2018-08-21T02:40:17.170Z,1014.62
2018-08-21T02:40:43.314Z,1014.6
2018-08-21T02:41:09.492Z,1014.66
2018-08-21T02:41:35.630Z,1014.64
2018-08-21T02:42:01.758Z,1014.63
2018-08-21T02:42:27.915Z,1014.64
2018-08-21T02:42:54.051Z,1014.64
2018-08-21T02:43:20.202Z,1014.67
2018-08-21T02:43:46.339Z,1014.62
2018-08-21T02:44:12.474Z,1014.65
2018-08-21T02:44:38.612Z,1014.65
2018-08-21T02:45:04.748Z,1014.64
2018-08-21T02:45:30.891Z,1014.65
2018-08-21T02:45:57.086Z,1014.61
2018-08-21T02:46:23.216Z,1014.64
2018-08-21T02:46:49.357Z,1014.62
2018-08-21T02:47:15.489Z,1014.63
2018-08-21T02:47:41.665Z,1014.64
2018-08-21T02:48:07.824Z,1014.61
2018-08-21T02:48:33.990Z,1014.61
2018-08-21T02:49:00.183Z,1014.63
2018-08-21T02:49:26.325Z,1014.61
2018-08-21T02:49:52.488Z,1014.6
2018-08-21T02:50:18.645Z,1014.59
2018-08-21T02:50:44.778Z,1014.6
2018-08-21T02:51:10.913Z,1014.6
2018-08-21T02:51:37.054Z,1014.63
2018-08-21T02:52:03.207Z,1014.61
2018-08-21T02:52:29.367Z,1014.64
2018-08-21T02:52:55.602Z,1014.63
2018-08-21T02:53:21.674Z,1014.62
2018-08-21T02:53:47.804Z,1014.59
2018-08-21T02:54:13.947Z,1014.59
2018-08-21T02:54:40.085Z,1014.56
2018-08-21T02:55:06.222Z,1014.56
2018-08-21T02:55:32.359Z,1014.54
2018-08-21T02:55:58.528Z,1014.56
2018-08-21T02:56:24.685Z,1014.56
2018-08-21T02:56:50.815Z,1014.58
2018-08-21T02:57:16.955Z,1014.53
2018-08-21T02:57:43.091Z,1014.54
2018-08-21T02:58:09.228Z,1014.55
2018-08-21T02:58:35.361Z,1014.53
2018-08-21T02:59:01.542Z,1014.49
2018-08-21T02:59:27.709Z,1014.54
2018-08-21T02:59:53.858Z,1014.49
2018-08-21T03:00:20.039Z,1014.5
2018-08-21T03:00:46.193Z,1014.56
2018-08-21T03:01:12.358Z,1014.51
2018-08-21T03:01:38.510Z,1014.5
2018-08-21T03:02:04.674Z,1014.51
2018-08-21T03:02:30.842Z,1014.42
2018-08-21T03:02:56.985Z,1014.48
2018-08-21T03:03:23.118Z,1014.49
2018-08-21T03:03:49.278Z,1014.5
2018-08-21T03:04:15.460Z,1014.42
2018-08-21T03:04:41.622Z,1014.47
2018-08-21T03:05:07.764Z,1014.42
2018-08-21T03:05:33.895Z,1014.42
2018-08-21T03:06:00.026Z,1014.43
2018-08-21T03:06:26.161Z,1014.41
2018-08-21T03:06:52.294Z,1014.42
2018-08-21T03:07:18.432Z,1014.43
2018-08-21T03:07:44.576Z,1014.47
2018-08-21T03:08:10.698Z,1014.42
2018-08-21T03:08:36.843Z,1014.45
2018-08-21T03:09:02.972Z,1014.45
2018-08-21T03:09:29.112Z,1014.41
2018-08-21T03:09:55.247Z,1014.47
2018-08-21T03:10:21.389Z,1014.43
2018-08-21T03:10:47.572Z,1014.41
2018-08-21T03:11:13.710Z,1014.43
2018-08-21T03:11:39.850Z,1014.44
2018-08-21T03:12:06.003Z,1014.43
2018-08-21T03:12:32.139Z,1014.43
2018-08-21T03:12:58.300Z,1014.4
2018-08-21T03:13:24.441Z,1014.38
2018-08-21T03:13:50.570Z,1014.4
2018-08-21T03:14:16.708Z,1014.43
2018-08-21T03:14:42.840Z,1014.4
2018-08-21T03:15:08.981Z,1014.39
2018-08-21T03:15:35.140Z,1014.39
2018-08-21T03:16:01.269Z,1014.39
2018-08-21T03:16:27.404Z,1014.39
2018-08-21T03:16:53.565Z,1014.38
2018-08-21T03:17:19.728Z,1014.36
2018-08-21T03:17:45.893Z,1014.4
2018-08-21T03:18:12.029Z,1014.43
2018-08-21T03:18:38.170Z,1014.41
2018-08-21T03:19:04.323Z,1014.38
2018-08-21T03:19:30.480Z,1014.39
2018-08-21T03:19:56.608Z,1014.41
2018-08-21T03:20:22.775Z,1014.39
2018-08-21T03:20:48.931Z,1014.41
2018-08-21T03:21:15.093Z,1014.42
2018-08-21T03:21:41.306Z,1014.43
2018-08-21T03:22:07.380Z,1014.46
2018-08-21T03:22:33.572Z,1014.45
2018-08-21T03:22:59.705Z,1014.44
2018-08-21T03:23:25.859Z,1014.42
2018-08-21T03:23:52.000Z,1014.44
2018-08-21T03:24:18.159Z,1014.4
2018-08-21T03:24:44.300Z,1014.45
2018-08-21T03:25:10.436Z,1014.45
2018-08-21T03:25:36.585Z,1014.45
2018-08-21T03:26:02.721Z,1014.45
2018-08-21T03:26:28.875Z,1014.44
2018-08-21T03:26:55.030Z,1014.45
2018-08-21T03:27:21.169Z,1014.45
2018-08-21T03:27:47.299Z,1014.46
2018-08-21T03:28:13.463Z,1014.41
2018-08-21T03:28:39.619Z,1014.43
2018-08-21T03:29:05.749Z,1014.42
2018-08-21T03:29:31.895Z,1014.43
2018-08-21T03:29:58.059Z,1014.42
2018-08-21T03:30:24.225Z,1014.39
2018-08-21T03:30:50.353Z,1014.42
2018-08-21T03:31:16.536Z,1014.4
2018-08-21T03:31:42.712Z,1014.39
2018-08-21T03:32:08.828Z,1014.39
2018-08-21T03:32:34.974Z,1014.4
2018-08-21T03:33:01.111Z,1014.38
2018-08-21T03:33:27.268Z,1014.39
2018-08-21T03:33:53.400Z,1014.39
2018-08-21T03:34:19.595Z,1014.4
2018-08-21T03:34:45.720Z,1014.37
2018-08-21T03:35:11.883Z,1014.42
2018-08-21T03:35:38.019Z,1014.39
2018-08-21T03:36:04.156Z,1014.38
2018-08-21T03:36:30.291Z,1014.39
2018-08-21T03:36:56.471Z,1014.41
2018-08-21T03:37:22.610Z,1014.4
2018-08-21T03:37:48.739Z,1014.39
2018-08-21T03:38:14.876Z,1014.41
2018-08-21T03:38:41.068Z,1014.42
2018-08-21T03:39:07.172Z,1014.4
2018-08-21T03:39:33.321Z,1014.38
2018-08-21T03:39:59.458Z,1014.38
2018-08-21T03:40:25.594Z,1014.4
2018-08-21T03:40:51.730Z,1014.43
2018-08-21T03:41:17.867Z,1014.39
2018-08-21T03:41:44.000Z,1014.37
2018-08-21T03:42:10.134Z,1014.39
2018-08-21T03:42:36.274Z,1014.38
2018-08-21T03:43:02.434Z,1014.38
2018-08-21T03:43:28.594Z,1014.4
2018-08-21T03:43:54.733Z,1014.43
2018-08-21T03:44:20.866Z,1014.36
2018-08-21T03:44:47.006Z,1014.39
2018-08-21T03:45:13.165Z,1014.43
2018-08-21T03:45:39.295Z,1014.43
2018-08-21T03:46:05.430Z,1014.44
2018-08-21T03:46:31.611Z,1014.45
2018-08-21T03:46:57.801Z,1014.46
2018-08-21T03:47:23.980Z,1014.44
2018-08-21T03:47:50.102Z,1014.46
2018-08-21T03:48:16.239Z,1014.48
2018-08-21T03:48:42.394Z,1014.48
2018-08-21T03:49:08.533Z,1014.5
2018-08-21T03:49:34.692Z,1014.48
2018-08-21T03:50:00.848Z,1014.49
2018-08-21T03:50:26.991Z,1014.5
2018-08-21T03:50:53.149Z,1014.49
2018-08-21T03:51:19.285Z,1014.52
2018-08-21T03:51:45.427Z,1014.53
2018-08-21T03:52:11.560Z,1014.5
2018-08-21T03:52:37.745Z,1014.5
2018-08-21T03:53:03.923Z,1014.51
2018-08-21T03:53:30.052Z,1014.56
2018-08-21T03:53:56.207Z,1014.5
2018-08-21T03:54:22.393Z,1014.51
2018-08-21T03:54:48.576Z,1014.51
2018-08-21T03:55:14.738Z,1014.51
2018-08-21T03:55:40.872Z,1014.52
2018-08-21T03:56:07.036Z,1014.55
2018-08-21T03:56:33.168Z,1014.48
2018-08-21T03:56:59.326Z,1014.49
2018-08-21T03:57:25.463Z,1014.5
2018-08-21T03:57:51.600Z,1014.47
2018-08-21T03:58:17.729Z,1014.47
2018-08-21T03:58:43.925Z,1014.48
2018-08-21T03:59:10.062Z,1014.48
2018-08-21T03:59:36.230Z,1014.48
2018-08-21T04:00:02.358Z,1014.48
2018-08-21T04:00:28.513Z,1014.47
2018-08-21T04:00:54.674Z,1014.46
2018-08-21T04:01:20.808Z,1014.48
2018-08-21T04:01:46.941Z,1014.46
2018-08-21T04:02:13.106Z,1014.47
2018-08-21T04:02:39.254Z,1014.48
2018-08-21T04:03:05.383Z,1014.44
2018-08-21T04:03:31.520Z,1014.46
2018-08-21T04:03:57.653Z,1014.45
2018-08-21T04:04:23.790Z,1014.43
2018-08-21T04:04:49.925Z,1014.45
2018-08-21T04:05:16.118Z,1014.47
2018-08-21T04:05:42.234Z,1014.49
2018-08-21T04:06:08.369Z,1014.49
2018-08-21T04:06:34.507Z,1014.5
2018-08-21T04:07:00.689Z,1014.5
2018-08-21T04:07:26.841Z,1014.53
2018-08-21T04:07:52.983Z,1014.55
2018-08-21T04:08:19.118Z,1014.52
2018-08-21T04:08:45.271Z,1014.51
2018-08-21T04:09:11.423Z,1014.53
2018-08-21T04:09:37.612Z,1014.52
2018-08-21T04:10:03.755Z,1014.53
2018-08-21T04:10:29.912Z,1014.56
2018-08-21T04:10:56.071Z,1014.55
2018-08-21T04:11:22.207Z,1014.57
2018-08-21T04:11:48.371Z,1014.58
2018-08-21T04:12:14.512Z,1014.58
2018-08-21T04:12:40.644Z,1014.61
2018-08-21T04:13:06.785Z,1014.58
2018-08-21T04:13:32.917Z,1014.58
2018-08-21T04:13:59.104Z,1014.6
2018-08-21T04:14:25.243Z,1014.59
2018-08-21T04:14:51.407Z,1014.6
2018-08-21T04:15:17.566Z,1014.61
2018-08-21T04:15:43.699Z,1014.61
2018-08-21T04:16:09.845Z,1014.61
2018-08-21T04:16:35.992Z,1014.64
2018-08-21T04:17:02.153Z,1014.62
2018-08-21T04:17:28.305Z,1014.61
2018-08-21T04:17:54.490Z,1014.63
2018-08-21T04:18:20.629Z,1014.64
2018-08-21T04:18:46.779Z,1014.66
2018-08-21T04:19:12.953Z,1014.65
2018-08-21T04:19:39.111Z,1014.61
2018-08-21T04:20:05.270Z,1014.62
2018-08-21T04:20:31.409Z,1014.62
2018-08-21T04:20:57.541Z,1014.65
2018-08-21T04:21:23.675Z,1014.61
2018-08-21T04:21:49.810Z,1014.61
2018-08-21T04:22:15.944Z,1014.6
2018-08-21T04:22:42.082Z,1014.6
2018-08-21T04:23:08.208Z,1014.6
2018-08-21T04:23:34.376Z,1014.6
2018-08-21T04:24:00.511Z,1014.59
2018-08-21T04:24:26.720Z,1014.58
2018-08-21T04:24:52.828Z,1014.56
2018-08-21T04:25:18.989Z,1014.58
2018-08-21T04:25:45.142Z,1014.56
2018-08-21T04:26:11.282Z,1014.58
2018-08-21T04:26:37.443Z,1014.53
2018-08-21T04:27:03.579Z,1014.6
2018-08-21T04:27:29.739Z,1014.56
2018-08-21T04:27:55.876Z,1014.55
2018-08-21T04:28:22.009Z,1014.55
2018-08-21T04:28:48.171Z,1014.56
2018-08-21T04:29:14.330Z,1014.59
2018-08-21T04:29:40.468Z,1014.61
2018-08-21T04:30:06.602Z,1014.62
2018-08-21T04:30:32.741Z,1014.64
2018-08-21T04:30:58.878Z,1014.63
2018-08-21T04:31:25.033Z,1014.62
2018-08-21T04:31:51.174Z,1014.65
2018-08-21T04:32:17.333Z,1014.65
2018-08-21T04:32:43.591Z,1014.66
2018-08-21T04:33:09.614Z,1014.68
2018-08-21T04:33:35.747Z,1014.7
2018-08-21T04:34:01.886Z,1014.68
2018-08-21T04:34:28.047Z,1014.7
2018-08-21T04:34:54.204Z,1014.68
2018-08-21T04:35:20.357Z,1014.69
2018-08-21T04:35:46.521Z,1014.68
2018-08-21T04:36:12.662Z,1014.7
2018-08-21T04:36:38.798Z,1014.7
2018-08-21T04:37:04.936Z,1014.71
2018-08-21T04:37:31.073Z,1014.68
2018-08-21T04:37:57.270Z,1014.7
2018-08-21T04:38:23.386Z,1014.7
2018-08-21T04:38:49.516Z,1014.69
2018-08-21T04:39:15.656Z,1014.71
2018-08-21T04:39:41.800Z,1014.74
2018-08-21T04:40:07.988Z,1014.66
2018-08-21T04:40:34.149Z,1014.73
2018-08-21T04:41:00.305Z,1014.72
2018-08-21T04:41:26.486Z,1014.71
2018-08-21T04:41:52.628Z,1014.73
2018-08-21T04:42:18.783Z,1014.74
2018-08-21T04:42:44.923Z,1014.76
2018-08-21T04:43:11.083Z,1014.73
2018-08-21T04:43:37.213Z,1014.71
2018-08-21T04:44:03.381Z,1014.73
2018-08-21T04:44:29.519Z,1014.71
2018-08-21T04:44:55.653Z,1014.75
2018-08-21T04:45:21.811Z,1014.71
2018-08-21T04:45:47.963Z,1014.71
2018-08-21T04:46:14.159Z,1014.74
2018-08-21T04:46:40.296Z,1014.72
2018-08-21T04:47:06.439Z,1014.72
2018-08-21T04:47:32.577Z,1014.72
2018-08-21T04:47:58.742Z,1014.73
2018-08-21T04:48:24.921Z,1014.74
2018-08-21T04:48:51.060Z,1014.77
2018-08-21T04:49:17.217Z,1014.72
2018-08-21T04:49:43.379Z,1014.75
2018-08-21T04:50:09.535Z,1014.74
2018-08-21T04:50:35.675Z,1014.77
2018-08-21T04:51:01.825Z,1014.8
2018-08-21T04:51:27.982Z,1014.81
2018-08-21T04:51:54.125Z,1014.78
2018-08-21T04:52:20.257Z,1014.78
2018-08-21T04:52:46.433Z,1014.77
2018-08-21T04:53:12.584Z,1014.79
2018-08-21T04:53:38.742Z,1014.77
2018-08-21T04:54:04.878Z,1014.78
2018-08-21T04:54:31.035Z,1014.79
2018-08-21T04:54:57.175Z,1014.83
2018-08-21T04:55:23.331Z,1014.79
2018-08-21T04:55:49.467Z,1014.82
2018-08-21T04:56:15.618Z,1014.83
2018-08-21T04:56:41.791Z,1014.78
2018-08-21T04:57:07.926Z,1014.81
2018-08-21T04:57:34.065Z,1014.82
2018-08-21T04:58:00.200Z,1014.83
2018-08-21T04:58:26.361Z,1014.82
2018-08-21T04:58:52.596Z,1014.84
2018-08-21T04:59:18.672Z,1014.83
2018-08-21T04:59:44.808Z,1014.79
2018-08-21T05:00:10.945Z,1014.86
2018-08-21T05:00:37.102Z,1014.83
2018-08-21T05:01:03.271Z,1014.83
2018-08-21T05:01:29.408Z,1014.85
2018-08-21T05:01:55.591Z,1014.86
2018-08-21T05:02:21.769Z,1014.87
2018-08-21T05:02:47.906Z,1014.82
2018-08-21T05:03:14.076Z,1014.83
2018-08-21T05:03:40.258Z,1014.86
2018-08-21T05:04:06.414Z,1014.88
2018-08-21T05:04:32.552Z,1014.87
2018-08-21T05:04:58.719Z,1014.89
2018-08-21T05:05:24.900Z,1014.89
2018-08-21T05:05:51.128Z,1014.89
2018-08-21T05:06:17.221Z,1014.89
2018-08-21T05:06:43.360Z,1014.89
2018-08-21T05:07:09.489Z,1014.93
2018-08-21T05:07:35.647Z,1014.89
2018-08-21T05:08:01.788Z,1014.92
2018-08-21T05:08:27.929Z,1014.88
2018-08-21T05:08:54.082Z,1014.91
2018-08-21T05:09:20.223Z,1014.87
2018-08-21T05:09:46.359Z,1014.87
2018-08-21T05:10:12.515Z,1014.9
2018-08-21T05:10:38.687Z,1014.89
2018-08-21T05:11:04.842Z,1014.9
2018-08-21T05:11:31.015Z,1014.87
2018-08-21T05:11:57.178Z,1014.88
2018-08-21T05:12:23.320Z,1014.91
2018-08-21T05:12:49.499Z,1014.87
2018-08-21T05:13:15.674Z,1014.84
2018-08-21T05:13:41.817Z,1014.86
2018-08-21T05:14:07.951Z,1014.87
2018-08-21T05:14:34.079Z,1014.88
2018-08-21T05:15:00.245Z,1014.86
2018-08-21T05:15:26.411Z,1014.91
2018-08-21T05:15:52.537Z,1014.85
2018-08-21T05:16:18.703Z,1014.85
2018-08-21T05:16:44.827Z,1014.86
2018-08-21T05:17:10.966Z,1014.88
2018-08-21T05:17:37.100Z,1014.89